Time;durP1;ratioP1;P1;durP2;ratioP2;P2;SDS_P1;SDS_P2;PMS_P1;PMS_P2;Temp;Humidity;BMP_temperature;BMP_pressure;BME280_temperature;BME280_humidity;BME280_pressure;Samples;Min_cycle;Max_cycle;Signal;HPM_P1;HPM_P2
2022/10/28 00:02:16;;;;;;;10.48;4.97;;;18.40;99.60;;;;;;5073011;28;20099;-72
2022/10/28 00:04:42;;;;;;;11.27;5.05;;;18.40;99.60;;;;;;5073077;28;20027;-72
2022/10/28 00:07:07;;;;;;;12.55;5.60;;;18.40;99.60;;;;;;5073098;28;20037;-72
2022/10/28 00:09:33;;;;;;;11.75;6.07;;;18.40;99.70;;;;;;5072786;28;20032;-72
2022/10/28 00:11:58;;;;;;;13.63;6.90;;;18.40;99.80;;;;;;5072906;28;20024;-72
2022/10/28 00:14:24;;;;;;;12.55;6.10;;;18.40;99.80;;;;;;5072840;28;20040;-72
2022/10/28 00:16:50;;;;;;;10.50;5.47;;;18.40;99.80;;;;;;5072876;28;20502;-72
2022/10/28 00:19:16;;;;;;;9.30;5.25;;;18.40;99.90;;;;;;5072898;28;20024;-72
2022/10/28 00:21:43;;;;;;;11.65;5.88;;;18.40;99.90;;;;;;5072795;28;20082;-72
2022/10/28 00:24:10;;;;;;;14.68;6.10;;;18.40;99.90;;;;;;5072758;28;20027;-72
2022/10/28 00:26:41;;;;;;;12.48;6.28;;;18.40;99.90;;;;;;5072277;28;20391;-72
2022/10/28 00:29:09;;;;;;;10.90;5.60;;;18.30;99.90;;;;;;5075235;28;20024;-72
2022/10/28 00:31:36;;;;;;;13.70;5.43;;;18.30;99.90;;;;;;5076833;28;20056;-72
2022/10/28 00:34:03;;;;;;;14.07;5.88;;;18.30;99.90;;;;;;5076875;28;20466;-72
2022/10/28 00:36:32;;;;;;;12.15;5.93;;;18.30;99.90;;;;;;5076753;28;20025;-72
2022/10/28 00:38:59;;;;;;;15.68;6.32;;;18.20;99.90;;;;;;5070614;28;20032;-72
2022/10/28 00:41:28;;;;;;;14.52;6.07;;;18.20;99.90;;;;;;5060415;28;20029;-71
2022/10/28 00:43:56;;;;;;;17.25;6.82;;;18.20;99.90;;;;;;5077882;28;20029;-72
2022/10/28 00:46:30;;;;;;;14.85;6.20;;;18.20;99.90;;;;;;5063889;28;20029;-72
2022/10/28 00:49:05;;;;;;;12.98;6.47;;;18.20;99.90;;;;;;5056064;28;20477;-72
2022/10/28 00:51:34;;;;;;;10.70;6.10;;;18.10;99.90;;;;;;5056231;28;20033;-72
2022/10/28 00:54:00;;;;;;;12.60;6.22;;;18.10;99.90;;;;;;5056200;28;20051;-72
2022/10/28 00:56:29;;;;;;;10.38;5.90;;;18.10;99.90;;;;;;5056170;28;20032;-72
2022/10/28 00:58:58;;;;;;;11.90;6.50;;;18.10;99.90;;;;;;5055995;28;20045;-72
2022/10/28 01:01:23;;;;;;;11.88;6.70;;;18.10;99.90;;;;;;5056145;28;20104;-72
2022/10/28 01:03:50;;;;;;;12.13;6.30;;;18.00;99.90;;;;;;5055704;28;20614;-72
2022/10/28 01:06:15;;;;;;;11.40;6.57;;;18.00;99.90;;;;;;5056176;28;20029;-72
2022/10/28 01:08:41;;;;;;;15.93;6.80;;;18.00;99.90;;;;;;5055994;28;20031;-72
2022/10/28 01:11:15;;;;;;;15.98;7.00;;;18.00;99.90;;;;;;5055630;28;20484;-72
2022/10/28 01:14:17;;;;;;;15.45;7.15;;;18.00;99.90;;;;;;5056008;28;20067;-72
2022/10/28 01:16:57;;;;;;;13.52;6.85;;;17.90;99.90;;;;;;5055989;28;20039;-72
2022/10/28 01:19:50;;;;;;;18.98;7.15;;;17.80;99.90;;;;;;5055322;28;20476;-72
2022/10/28 01:22:27;;;;;;;13.02;6.47;;;17.80;99.90;;;;;;5055587;28;20032;-72
2022/10/28 01:25:05;;;;;;;15.65;6.80;;;17.80;99.90;;;;;;5055614;28;20044;-72
2022/10/28 01:27:52;;;;;;;14.05;6.00;;;17.70;99.90;;;;;;5055158;28;20476;-72
2022/10/28 01:30:24;;;;;;;11.20;6.57;;;17.70;99.90;;;;;;5055015;28;20503;-72
2022/10/28 01:33:10;;;;;;;14.20;6.88;;;17.70;99.90;;;;;;5055738;28;20032;-72
2022/10/28 01:35:51;;;;;;;12.80;7.03;;;17.70;99.90;;;;;;5055548;28;20048;-72
2022/10/28 01:38:33;;;;;;;12.80;6.38;;;17.70;99.90;;;;;;5063474;28;20032;-70
2022/10/28 01:41:22;;;;;;;19.15;7.03;;;17.70;99.90;;;;;;5059204;28;20053;-72
2022/10/28 01:43:55;;;;;;;11.02;6.28;;;17.80;99.90;;;;;;5055218;28;20033;-72
2022/10/28 01:46:33;;;;;;;14.65;6.13;;;17.80;99.90;;;;;;5054755;28;20044;-72
2022/10/28 01:49:09;;;;;;;12.18;6.50;;;17.80;99.90;;;;;;5055284;28;20104;-72
2022/10/28 01:51:39;;;;;;;15.40;6.97;;;17.90;99.90;;;;;;5054562;28;20484;-72
2022/10/28 01:54:07;;;;;;;17.48;7.13;;;17.90;99.90;;;;;;5054861;28;20473;-72
2022/10/28 01:56:39;;;;;;;14.23;6.43;;;17.90;99.90;;;;;;5055168;28;20471;-72
2022/10/28 01:59:08;;;;;;;17.63;6.47;;;18.00;99.90;;;;;;5055194;28;20021;-72
2022/10/28 02:01:35;;;;;;;16.67;6.45;;;18.00;99.90;;;;;;5054657;28;20040;-72
2022/10/28 02:04:01;;;;;;;14.35;7.30;;;18.00;99.90;;;;;;5054611;28;20028;-72
2022/10/28 02:06:30;;;;;;;11.75;6.45;;;17.90;99.90;;;;;;5054892;28;20025;-72
2022/10/28 02:09:07;;;;;;;18.58;6.57;;;18.00;99.90;;;;;;5054589;28;20025;-72
2022/10/28 02:11:44;;;;;;;13.80;6.10;;;18.00;99.90;;;;;;5054968;28;20380;-72
2022/10/28 02:14:16;;;;;;;13.45;6.85;;;18.00;99.90;;;;;;5054562;28;20057;-72
2022/10/28 02:16:48;;;;;;;16.35;7.18;;;18.00;99.90;;;;;;5054590;28;20028;-72
2022/10/28 02:19:37;;;;;;;13.07;6.70;;;18.00;99.90;;;;;;5054818;28;20064;-72
2022/10/28 02:22:19;;;;;;;20.98;7.07;;;18.00;99.90;;;;;;5054438;28;20017;-72
2022/10/28 02:25:13;;;;;;;13.93;6.97;;;17.90;99.90;;;;;;5054742;28;20468;-72
2022/10/28 02:27:48;;;;;;;14.43;6.53;;;17.80;99.90;;;;;;5054548;28;20021;-72
2022/10/28 02:30:21;;;;;;;14.07;6.80;;;17.80;99.90;;;;;;5054255;28;20052;-72
2022/10/28 02:32:56;;;;;;;17.90;6.40;;;17.80;99.90;;;;;;5054822;28;20063;-73
2022/10/28 02:35:27;;;;;;;11.63;5.72;;;17.70;99.90;;;;;;5073475;28;20029;-72
2022/10/28 02:37:54;;;;;;;16.67;6.72;;;17.70;99.90;;;;;;5074104;28;20071;-72
2022/10/28 02:40:26;;;;;;;9.70;5.90;;;17.80;99.90;;;;;;5054792;28;20033;-72
2022/10/28 02:42:57;;;;;;;12.95;6.05;;;17.80;99.90;;;;;;5054547;28;20025;-72
2022/10/28 02:45:39;;;;;;;14.60;6.18;;;17.80;99.90;;;;;;5054081;28;20481;-72
2022/10/28 02:48:14;;;;;;;9.75;5.32;;;17.80;99.90;;;;;;5053943;28;20504;-72
2022/10/28 02:50:44;;;;;;;13.80;5.45;;;17.80;99.90;;;;;;5052953;28;20045;-71
2022/10/28 02:53:29;;;;;;;14.85;6.10;;;17.80;99.90;;;;;;5054056;28;20051;-72
2022/10/28 02:55:58;;;;;;;14.70;6.13;;;17.80;99.90;;;;;;5054000;28;20107;-72
2022/10/28 02:58:24;;;;;;;10.00;5.28;;;17.80;99.90;;;;;;5053657;28;20021;-72
2022/10/28 03:00:50;;;;;;;12.90;5.45;;;17.80;99.90;;;;;;5053987;28;20021;-72
2022/10/28 03:03:16;;;;;;;14.63;5.90;;;17.80;99.90;;;;;;5053704;28;20362;-72
2022/10/28 03:05:42;;;;;;;10.80;5.40;;;17.80;99.90;;;;;;5053650;28;20060;-72
2022/10/28 03:08:07;;;;;;;12.88;5.70;;;17.80;99.90;;;;;;5053496;28;20114;-72
2022/10/28 03:10:33;;;;;;;14.35;6.10;;;17.80;99.90;;;;;;5053818;28;20037;-72
2022/10/28 03:12:59;;;;;;;8.38;5.45;;;17.80;99.90;;;;;;5053482;28;20021;-72
2022/10/28 03:15:24;;;;;;;12.07;5.50;;;17.80;99.90;;;;;;5053597;28;20033;-72
2022/10/28 03:17:50;;;;;;;11.02;5.40;;;17.80;99.90;;;;;;5053697;28;20020;-72
2022/10/28 03:20:16;;;;;;;12.88;5.05;;;17.90;99.90;;;;;;5053499;28;20120;-72
2022/10/28 03:22:43;;;;;;;11.32;5.10;;;17.90;99.90;;;;;;5053687;28;20033;-72
2022/10/28 03:25:09;;;;;;;16.35;5.25;;;17.90;99.90;;;;;;5053420;28;20036;-72
2022/10/28 03:27:34;;;;;;;13.25;5.40;;;17.90;99.90;;;;;;5053264;28;20028;-72
2022/10/28 03:30:00;;;;;;;10.75;5.60;;;17.90;99.90;;;;;;5056612;28;20057;-68
2022/10/28 03:32:26;;;;;;;14.88;5.47;;;17.90;99.90;;;;;;5076507;28;20068;-72
2022/10/28 03:34:51;;;;;;;17.17;6.07;;;17.90;99.90;;;;;;5072627;28;20475;-72
2022/10/28 03:37:17;;;;;;;11.55;5.00;;;17.80;99.90;;;;;;5053447;28;20025;-72
2022/10/28 03:39:42;;;;;;;12.18;4.97;;;17.80;99.90;;;;;;5053249;28;20025;-72
2022/10/28 03:42:08;;;;;;;8.55;4.10;;;17.80;99.90;;;;;;5053409;28;20039;-72
2022/10/28 03:44:33;;;;;;;9.57;4.82;;;17.80;99.90;;;;;;5053132;28;20036;-72
2022/10/28 03:46:59;;;;;;;16.40;5.30;;;17.90;99.90;;;;;;5053349;28;20063;-72
2022/10/28 03:49:25;;;;;;;9.45;4.80;;;17.90;99.90;;;;;;5053032;28;20381;-72
2022/10/28 03:51:50;;;;;;;11.05;4.80;;;17.90;99.90;;;;;;5053019;28;20017;-72
2022/10/28 03:54:16;;;;;;;12.10;5.53;;;17.90;99.90;;;;;;5053246;28;20033;-72
2022/10/28 03:56:41;;;;;;;9.63;4.35;;;17.90;99.90;;;;;;5053032;28;20044;-72
2022/10/28 03:59:10;;;;;;;10.65;4.95;;;17.90;99.90;;;;;;5053153;28;20029;-72
2022/10/28 04:01:36;;;;;;;8.27;4.50;;;17.90;99.90;;;;;;5053515;28;20029;-72
2022/10/28 04:04:01;;;;;;;9.40;4.35;;;17.90;99.90;;;;;;5057033;28;20025;-71
2022/10/28 04:06:27;;;;;;;15.98;5.28;;;17.90;99.90;;;;;;5057119;28;20032;-71
2022/10/28 04:08:53;;;;;;;12.45;4.80;;;17.80;99.90;;;;;;5056896;28;20053;-71
2022/10/28 04:11:18;;;;;;;12.35;4.85;;;17.80;99.90;;;;;;5056707;28;20033;-71
2022/10/28 04:13:44;;;;;;;10.52;4.82;;;17.80;99.90;;;;;;5057303;28;20119;-71
2022/10/28 04:16:09;;;;;;;11.25;4.50;;;17.80;99.90;;;;;;5057079;28;20361;-72
2022/10/28 04:18:35;;;;;;;13.00;5.22;;;17.80;99.90;;;;;;5056840;28;20150;-71
2022/10/28 04:21:01;;;;;;;7.50;3.92;;;17.80;99.80;;;;;;5057054;28;20036;-72
2022/10/28 04:23:27;;;;;;;6.65;3.67;;;17.80;99.90;;;;;;5057307;28;20025;-71
2022/10/28 04:25:53;;;;;;;10.82;4.00;;;17.80;99.90;;;;;;5056457;28;20025;-72
2022/10/28 04:28:21;;;;;;;11.93;4.45;;;17.80;99.90;;;;;;5070178;28;20009;-72
2022/10/28 04:30:47;;;;;;;9.32;4.35;;;17.80;99.70;;;;;;5079857;28;20053;-72
2022/10/28 04:33:12;;;;;;;11.32;3.88;;;17.80;99.70;;;;;;5061706;28;20412;-71
2022/10/28 04:35:41;;;;;;;7.88;3.72;;;17.80;99.70;;;;;;5056623;28;20056;-72
2022/10/28 04:38:07;;;;;;;14.70;4.68;;;17.80;99.70;;;;;;5056477;28;20032;-72
2022/10/28 04:40:33;;;;;;;13.25;4.30;;;17.80;99.90;;;;;;5056736;28;20368;-72
2022/10/28 04:42:58;;;;;;;12.82;4.05;;;17.90;99.60;;;;;;5056477;28;20053;-73
2022/10/28 04:45:24;;;;;;;10.52;4.28;;;17.80;99.60;;;;;;5056238;28;20029;-73
2022/10/28 04:47:55;;;;;;;6.90;3.53;;;17.80;99.50;;;;;;5056489;28;20025;-73
2022/10/28 04:50:20;;;;;;;14.30;4.70;;;17.80;99.50;;;;;;5054749;28;20255;-72
2022/10/28 04:52:46;;;;;;;10.63;3.97;;;17.80;99.50;;;;;;5056032;28;20125;-72
2022/10/28 04:55:11;;;;;;;11.55;4.43;;;17.80;99.40;;;;;;5056508;28;20025;-72
2022/10/28 04:57:37;;;;;;;12.48;3.97;;;17.90;99.50;;;;;;5056281;28;20032;-72
2022/10/28 05:00:03;;;;;;;11.20;4.15;;;17.80;99.40;;;;;;5056153;28;20380;-72
2022/10/28 05:02:29;;;;;;;13.60;4.45;;;17.90;99.30;;;;;;5055944;28;20029;-71
2022/10/28 05:04:59;;;;;;;7.55;3.55;;;17.90;99.30;;;;;;5055928;28;20032;-72
2022/10/28 05:07:24;;;;;;;7.55;3.60;;;17.90;99.30;;;;;;5055723;28;20060;-73
2022/10/28 05:09:52;;;;;;;6.65;3.35;;;17.90;99.30;;;;;;5055995;28;20056;-73
2022/10/28 05:12:18;;;;;;;9.40;3.65;;;17.90;99.50;;;;;;5055754;28;20021;-71
2022/10/28 05:14:43;;;;;;;9.10;3.75;;;18.00;99.20;;;;;;5054805;28;20025;-71
2022/10/28 05:17:10;;;;;;;10.73;3.80;;;18.00;99.20;;;;;;5055646;28;20052;-72
2022/10/28 05:19:36;;;;;;;11.60;4.15;;;18.00;99.20;;;;;;5055994;28;20032;-72
2022/10/28 05:22:01;;;;;;;10.95;4.78;;;18.00;99.00;;;;;;5058676;28;20044;-70
2022/10/28 05:24:27;;;;;;;11.73;4.32;;;17.90;99.00;;;;;;5066412;28;20127;-70
2022/10/28 05:26:52;;;;;;;10.32;4.05;;;17.90;98.90;;;;;;5058312;28;20103;-71
2022/10/28 05:29:18;;;;;;;7.35;3.47;;;17.90;98.90;;;;;;5055228;28;20405;-72
2022/10/28 05:31:45;;;;;;;12.18;4.10;;;17.90;99.00;;;;;;5055308;28;20481;-72
2022/10/28 05:34:11;;;;;;;13.07;4.32;;;17.90;98.90;;;;;;5055719;28;20033;-72
2022/10/28 05:36:37;;;;;;;6.47;3.45;;;17.90;99.00;;;;;;5055263;28;20436;-72
2022/10/28 05:39:03;;;;;;;13.13;4.38;;;17.90;98.90;;;;;;5055386;28;20044;-72
2022/10/28 05:41:29;;;;;;;9.57;3.63;;;17.90;99.00;;;;;;5054933;28;20025;-72
2022/10/28 05:43:55;;;;;;;11.25;4.15;;;17.80;98.90;;;;;;5055453;28;20017;-72
2022/10/28 05:46:21;;;;;;;11.13;4.00;;;17.80;98.90;;;;;;5055114;28;20035;-72
2022/10/28 05:48:47;;;;;;;8.55;3.67;;;17.80;98.80;;;;;;5055032;28;20028;-72
2022/10/28 05:51:13;;;;;;;9.95;4.50;;;17.80;98.80;;;;;;5054831;28;20568;-72
2022/10/28 05:53:40;;;;;;;11.10;3.90;;;17.80;98.80;;;;;;5055120;28;20112;-71
2022/10/28 05:56:07;;;;;;;8.80;3.97;;;17.80;98.80;;;;;;5055215;28;20029;-71
2022/10/28 05:58:33;;;;;;;7.53;3.38;;;17.80;98.90;;;;;;5054954;28;20025;-71
2022/10/28 06:00:58;;;;;;;8.73;3.67;;;17.80;98.90;;;;;;5054796;28;20112;-72
2022/10/28 06:03:24;;;;;;;9.70;3.45;;;17.80;98.90;;;;;;5054539;28;20017;-72
2022/10/28 06:05:50;;;;;;;10.43;3.58;;;17.80;98.80;;;;;;5054489;28;20036;-72
2022/10/28 06:08:15;;;;;;;10.82;3.92;;;17.80;98.80;;;;;;5055127;28;20032;-72
2022/10/28 06:10:49;;;;;;;12.40;4.07;;;17.80;98.70;;;;;;5054481;28;20071;-72
2022/10/28 06:13:15;;;;;;;8.23;3.47;;;17.80;98.70;;;;;;5054590;28;20028;-75
2022/10/28 06:15:40;;;;;;;8.88;3.08;;;17.90;98.80;;;;;;5054527;28;20024;-71
2022/10/28 06:18:06;;;;;;;8.77;3.45;;;17.90;99.00;;;;;;5054528;28;20028;-73
2022/10/28 06:20:31;;;;;;;9.30;3.53;;;18.00;99.20;;;;;;5054855;28;20107;-71
2022/10/28 06:22:57;;;;;;;15.43;3.83;;;18.00;99.20;;;;;;5057882;28;20017;-75
2022/10/28 06:25:24;;;;;;;8.20;3.78;;;17.90;99.10;;;;;;5054508;28;20025;-75
2022/10/28 06:27:53;;;;;;;9.40;3.38;;;18.00;99.10;;;;;;5052039;28;20021;-74
2022/10/28 06:30:19;;;;;;;9.48;3.65;;;17.90;99.10;;;;;;5053940;28;20049;-73
2022/10/28 06:32:44;;;;;;;9.45;3.85;;;18.00;99.00;;;;;;5053803;28;20078;-73
2022/10/28 06:35:10;;;;;;;9.50;3.40;;;18.00;99.20;;;;;;5054173;28;20025;-74
2022/10/28 06:37:35;;;;;;;7.38;3.17;;;18.00;99.20;;;;;;5054039;28;20385;-75
2022/10/28 06:40:01;;;;;;;7.68;3.10;;;18.10;99.30;;;;;;5053887;28;20032;-75
2022/10/28 06:42:26;;;;;;;10.88;3.80;;;18.00;99.20;;;;;;5053910;28;20029;-75
2022/10/28 06:44:53;;;;;;;11.77;3.20;;;18.00;99.20;;;;;;5054177;28;20024;-75
2022/10/28 06:47:19;;;;;;;12.23;3.33;;;18.10;99.30;;;;;;5053872;28;20033;-75
2022/10/28 06:49:45;;;;;;;8.00;3.15;;;18.00;99.20;;;;;;5053964;28;20041;-74
2022/10/28 06:52:10;;;;;;;11.93;3.83;;;18.10;99.30;;;;;;5053905;28;20476;-73
2022/10/28 06:54:36;;;;;;;12.23;3.90;;;18.10;99.40;;;;;;5053748;28;20028;-72
2022/10/28 06:57:01;;;;;;;10.00;3.17;;;18.10;99.20;;;;;;5054018;28;20100;-73
2022/10/28 06:59:27;;;;;;;10.38;3.28;;;18.10;99.20;;;;;;5053531;28;20377;-70
2022/10/28 07:01:52;;;;;;;10.50;2.75;;;18.10;99.20;;;;;;5053882;28;20068;-71
2022/10/28 07:04:18;;;;;;;10.25;3.63;;;18.10;99.10;;;;;;5053419;28;20380;-70
2022/10/28 07:06:43;;;;;;;14.48;4.20;;;18.20;99.10;;;;;;5053652;28;20056;-71
2022/10/28 07:09:13;;;;;;;8.57;3.45;;;18.10;99.00;;;;;;5053360;28;20082;-72
2022/10/28 07:11:39;;;;;;;7.88;3.30;;;18.10;98.90;;;;;;5053367;28;20456;-72
2022/10/28 07:14:04;;;;;;;9.65;3.28;;;18.10;98.90;;;;;;5053481;28;20072;-74
2022/10/28 07:16:30;;;;;;;13.32;3.55;;;18.10;98.80;;;;;;5053640;28;20052;-71
2022/10/28 07:18:56;;;;;;;12.70;3.75;;;18.10;98.70;;;;;;5063863;28;20035;-71
2022/10/28 07:21:27;;;;;;;11.73;3.60;;;18.20;98.70;;;;;;5054161;28;20094;-71
2022/10/28 07:23:53;;;;;;;10.13;3.53;;;18.10;98.60;;;;;;5053396;28;20130;-73
2022/10/28 07:26:18;;;;;;;12.75;3.28;;;18.10;98.60;;;;;;5053301;28;20017;-71
2022/10/28 07:28:44;;;;;;;12.80;3.78;;;18.10;98.70;;;;;;5053520;28;20082;-73
2022/10/28 07:31:09;;;;;;;10.98;3.50;;;18.20;98.70;;;;;;5052881;28;20389;-73
2022/10/28 07:33:35;;;;;;;12.30;4.40;;;18.20;98.70;;;;;;5053119;28;20029;-73
2022/10/28 07:36:04;;;;;;;11.93;4.10;;;18.20;98.70;;;;;;5052675;28;20032;-74
2022/10/28 07:38:31;;;;;;;8.32;3.80;;;18.20;98.70;;;;;;5052960;28;20500;-76
2022/10/28 07:40:56;;;;;;;9.23;3.40;;;18.20;98.70;;;;;;5053252;28;20040;-78
2022/10/28 07:43:22;;;;;;;8.88;3.47;;;18.20;98.70;;;;;;5052726;28;20025;-73
2022/10/28 07:45:54;;;;;;;10.70;3.53;;;18.30;98.70;;;;;;5052985;28;20024;-74
2022/10/28 07:48:19;;;;;;;9.30;3.55;;;18.30;98.70;;;;;;5053272;28;20102;-75
2022/10/28 07:50:45;;;;;;;10.95;3.58;;;18.30;98.80;;;;;;5053091;28;20453;-74
2022/10/28 07:53:10;;;;;;;15.02;3.80;;;18.20;98.80;;;;;;5052653;28;20022;-74
2022/10/28 07:55:36;;;;;;;12.50;3.70;;;18.30;98.90;;;;;;5052989;28;20108;-74
2022/10/28 07:58:02;;;;;;;10.38;3.90;;;18.30;98.90;;;;;;5053002;28;20021;-75
2022/10/28 08:00:27;;;;;;;11.77;3.47;;;18.30;98.90;;;;;;5052898;28;20465;-74
2022/10/28 08:02:53;;;;;;;14.68;3.72;;;18.30;98.90;;;;;;5053096;28;20021;-74
2022/10/28 08:05:18;;;;;;;9.88;3.75;;;18.40;99.00;;;;;;5052891;28;20060;-74
2022/10/28 08:07:45;;;;;;;13.23;3.90;;;18.40;99.00;;;;;;5052586;28;20124;-74
2022/10/28 08:10:11;;;;;;;13.77;3.88;;;18.40;99.00;;;;;;5052880;28;20044;-74
2022/10/28 08:12:37;;;;;;;7.43;3.28;;;18.40;99.10;;;;;;5053016;28;20021;-74
2022/10/28 08:15:03;;;;;;;9.73;3.80;;;18.50;99.10;;;;;;5054059;28;20033;-72
2022/10/28 08:17:29;;;;;;;14.75;3.58;;;18.50;99.20;;;;;;5053371;28;20025;-74
2022/10/28 08:19:55;;;;;;;13.05;3.42;;;18.50;99.20;;;;;;5052755;28;20024;-74
2022/10/28 08:22:20;;;;;;;13.50;3.55;;;18.60;99.20;;;;;;5053002;28;20021;-74
2022/10/28 08:24:46;;;;;;;9.20;3.58;;;18.60;99.20;;;;;;5052268;28;20361;-74
2022/10/28 08:27:11;;;;;;;14.93;4.03;;;18.60;99.20;;;;;;5052680;28;20033;-74
2022/10/28 08:29:37;;;;;;;9.43;3.80;;;18.70;99.20;;;;;;5052305;28;20076;-74
2022/10/28 08:32:02;;;;;;;15.52;3.25;;;18.70;99.20;;;;;;5052484;28;20037;-74
2022/10/28 08:34:29;;;;;;;9.00;3.30;;;18.70;99.20;;;;;;5051314;28;20112;-74
2022/10/28 08:36:56;;;;;;;9.85;3.70;;;18.80;99.00;;;;;;5052533;28;20474;-74
2022/10/28 08:39:22;;;;;;;15.68;3.78;;;18.80;98.90;;;;;;5052526;28;20036;-75
2022/10/28 08:42:17;;;;;;;14.95;3.17;;;18.80;98.90;;;;;;5052923;28;20021;-74
2022/10/28 08:44:51;;;;;;;7.13;3.00;;;18.80;98.90;;;;;;5052417;28;20025;-74
2022/10/28 08:47:44;;;;;;;11.25;3.50;;;18.90;98.90;;;;;;5052849;28;20029;-73
2022/10/28 08:50:15;;;;;;;14.45;3.70;;;18.90;98.90;;;;;;5055633;28;20037;-75
2022/10/28 08:53:02;;;;;;;12.30;3.78;;;18.90;98.90;;;;;;5056843;28;20471;-75
2022/10/28 08:55:46;;;;;;;15.05;3.50;;;19.10;98.80;;;;;;5056267;28;20029;-75
2022/10/28 08:58:25;;;;;;;13.20;4.03;;;19.10;98.70;;;;;;5055636;28;20029;-75
2022/10/28 09:00:54;;;;;;;9.35;3.45;;;19.10;98.70;;;;;;5055487;28;20472;-75
2022/10/28 09:03:21;;;;;;;14.57;3.78;;;19.20;98.70;;;;;;5055900;28;20036;-75
2022/10/28 09:05:52;;;;;;;13.82;4.35;;;19.30;98.80;;;;;;5055921;28;20032;-74
2022/10/28 09:08:30;;;;;;;16.08;3.97;;;19.30;98.70;;;;;;5055825;28;20469;-74
2022/10/28 09:11:10;;;;;;;14.32;3.30;;;19.40;98.70;;;;;;5057248;28;20040;-75
2022/10/28 09:13:47;;;;;;;12.10;4.18;;;19.50;98.60;;;;;;5056063;28;20118;-75
2022/10/28 09:16:41;;;;;;;15.20;4.32;;;19.50;98.60;;;;;;5055903;28;20064;-74
2022/10/28 09:19:25;;;;;;;11.98;3.60;;;19.60;98.30;;;;;;5055699;28;20061;-74
2022/10/28 09:22:22;;;;;;;14.32;3.25;;;19.70;98.10;;;;;;5055553;28;20025;-75
2022/10/28 09:24:55;;;;;;;9.65;3.00;;;19.80;97.70;;;;;;5055416;28;20018;-76
2022/10/28 09:27:26;;;;;;;21.35;4.70;;;19.90;97.70;;;;;;5055575;28;20029;-76
2022/10/28 09:30:17;;;;;;;13.75;3.58;;;19.90;97.40;;;;;;5055246;28;20499;-75
2022/10/28 09:33:10;;;;;;;14.65;4.20;;;20.00;97.50;;;;;;5055363;28;20029;-75
2022/10/28 09:35:38;;;;;;;;;;;20.10;97.40;;;;;;5055814;28;20136;-76
2022/10/28 09:38:27;;;;;;;11.05;4.10;;;20.10;97.30;;;;;;5055301;28;19950;-76
2022/10/28 09:41:13;;;;;;;13.90;3.92;;;20.10;97.30;;;;;;5055314;28;20029;-80
2022/10/28 09:43:50;;;;;;;12.30;4.30;;;20.10;97.20;;;;;;5054987;28;20503;-75
2022/10/28 09:46:17;;;;;;;12.73;3.70;;;20.10;97.20;;;;;;5055005;28;20500;-75
2022/10/28 09:48:47;;;;;;;13.18;4.55;;;20.20;97.20;;;;;;5055067;28;20472;-76
2022/10/28 09:51:19;;;;;;;13.60;3.72;;;20.20;97.40;;;;;;5055017;28;20037;-78
2022/10/28 09:53:52;;;;;;;15.15;4.18;;;20.30;97.20;;;;;;5054473;28;20021;-73
2022/10/28 09:56:17;;;;;;;13.02;3.97;;;20.30;97.30;;;;;;5055011;28;20476;-74
2022/10/28 09:58:46;;;;;;;16.30;4.10;;;20.40;97.30;;;;;;5054273;28;20033;-75
2022/10/28 10:01:12;;;;;;;11.90;3.85;;;20.40;97.30;;;;;;5053762;28;20464;-73
2022/10/28 10:03:42;;;;;;;15.68;3.85;;;20.40;97.30;;;;;;5054852;28;20025;-73
2022/10/28 10:06:14;;;;;;;13.40;4.20;;;20.40;97.40;;;;;;5056878;28;20108;-77
2022/10/28 10:08:40;;;;;;;13.25;4.05;;;20.50;97.20;;;;;;5064138;28;20451;-76
2022/10/28 10:11:19;;;;;;;11.10;3.83;;;20.50;97.10;;;;;;5054399;28;20037;-74
2022/10/28 10:13:45;;;;;;;14.25;4.35;;;20.50;97.20;;;;;;5052790;28;20021;-75
2022/10/28 10:16:38;;;;;;;13.93;4.22;;;20.50;97.30;;;;;;5054320;28;20100;-75
2022/10/28 10:19:06;;;;;;;12.50;4.00;;;20.60;97.30;;;;;;5042487;28;20033;-74
2022/10/28 10:21:47;;;;;;;13.27;3.80;;;20.70;97.20;;;;;;5054389;28;20021;-75
2022/10/28 10:24:34;;;;;;;16.63;4.80;;;20.70;97.00;;;;;;5054104;28;20020;-74
2022/10/28 10:27:17;;;;;;;15.30;3.70;;;20.70;96.70;;;;;;5054542;28;20029;-73
2022/10/28 10:29:47;;;;;;;13.02;4.10;;;20.70;96.60;;;;;;5054004;28;20040;-75
2022/10/28 10:32:30;;;;;;;11.02;4.35;;;20.80;96.70;;;;;;5051823;28;20029;-72
2022/10/28 10:35:19;;;;;;;15.30;3.83;;;20.80;96.70;;;;;;5053973;28;20497;-73
2022/10/28 10:37:46;;;;;;;15.80;4.32;;;20.90;96.80;;;;;;5054148;28;20033;-74
2022/10/28 10:40:15;;;;;;;13.30;3.92;;;21.00;96.80;;;;;;5053953;28;20025;-73
2022/10/28 10:42:41;;;;;;;15.80;4.20;;;21.00;96.50;;;;;;5053820;28;20062;-73
2022/10/28 10:45:26;;;;;;;11.60;4.07;;;21.00;96.40;;;;;;5053841;28;20108;-73
2022/10/28 10:48:09;;;;;;;13.18;4.00;;;21.00;96.40;;;;;;5054107;28;20029;-76
2022/10/28 10:50:36;;;;;;;13.63;4.47;;;21.00;96.60;;;;;;5053667;28;20067;-78
2022/10/28 10:53:03;;;;;;;11.60;3.42;;;21.10;96.40;;;;;;5054081;28;20072;-79
2022/10/28 10:55:33;;;;;;;12.05;4.15;;;21.10;96.40;;;;;;5053849;28;20029;-78
2022/10/28 10:58:00;;;;;;;18.58;4.63;;;21.20;96.40;;;;;;5053855;28;20075;-78
2022/10/28 11:00:37;;;;;;;13.55;3.45;;;21.20;96.20;;;;;;5054253;28;20025;-78
2022/10/28 11:03:05;;;;;;;12.90;3.28;;;21.20;96.40;;;;;;5057434;28;20021;-77
2022/10/28 11:05:31;;;;;;;13.18;3.47;;;21.20;96.50;;;;;;5054946;28;20032;-78
2022/10/28 11:08:03;;;;;;;14.63;3.40;;;21.30;96.40;;;;;;5054010;28;20025;-79
2022/10/28 11:10:30;;;;;;;11.43;3.30;;;21.30;96.30;;;;;;5051884;28;20044;-80
2022/10/28 11:12:59;;;;;;;10.23;3.20;;;21.40;96.20;;;;;;5050843;28;20029;-80
2022/10/28 11:15:27;;;;;;;17.45;3.65;;;21.40;96.30;;;;;;5051653;28;20080;-79
2022/10/28 11:17:56;;;;;;;15.32;4.63;;;21.50;96.40;;;;;;5051207;28;20048;-79
2022/10/28 11:20:45;;;;;;;9.93;3.35;;;21.50;96.40;;;;;;5051339;28;20036;-80
2022/10/28 11:23:33;;;;;;;12.27;3.30;;;21.60;96.20;;;;;;5051472;28;20024;-79
2022/10/28 11:26:03;;;;;;;20.52;4.15;;;21.60;95.70;;;;;;5053365;28;20026;-79
2022/10/28 11:28:52;;;;;;;11.77;2.97;;;21.60;94.80;;;;;;5053226;28;20072;-78
2022/10/28 11:31:20;;;;;;;11.93;3.35;;;21.60;94.80;;;;;;5053326;28;20053;-79
2022/10/28 11:34:23;;;;;;;11.60;3.17;;;21.60;94.60;;;;;;5053192;28;20073;-80
2022/10/28 11:37:21;;;;;;;11.90;3.45;;;21.60;94.80;;;;;;5033642;28;20142;-79
2022/10/28 11:40:05;;;;;;;10.93;3.38;;;21.60;94.80;;;;;;5053012;28;20465;-79
2022/10/28 11:42:47;;;;;;;15.32;3.35;;;21.60;95.20;;;;;;5053064;28;20368;-79
2022/10/28 11:45:32;;;;;;;13.23;3.53;;;21.60;95.20;;;;;;5053424;28;20025;-79
2022/10/28 11:48:28;;;;;;;8.57;3.00;;;21.70;95.00;;;;;;5053367;28;20040;-79
2022/10/28 11:51:01;;;;;;;14.20;3.75;;;21.80;95.20;;;;;;5053059;28;20037;-79
2022/10/28 11:53:35;;;;;;;12.15;3.17;;;21.70;95.00;;;;;;5053145;28;20105;-78
2022/10/28 11:56:19;;;;;;;11.70;3.40;;;21.80;94.50;;;;;;5053015;28;20488;-78
2022/10/28 11:59:04;;;;;;;14.32;3.35;;;21.80;94.50;;;;;;5055857;28;20109;-78
2022/10/28 12:01:45;;;;;;;12.95;3.53;;;21.80;94.30;;;;;;5055584;28;20099;-79
2022/10/28 12:04:38;;;;;;;10.30;2.95;;;21.80;94.10;;;;;;5052849;28;20047;-79
2022/10/28 12:07:23;;;;;;;13.48;3.17;;;21.80;94.30;;;;;;5052963;28;20024;-80
2022/10/28 12:10:08;;;;;;;14.27;3.50;;;21.90;94.30;;;;;;5052930;28;20099;-80
2022/10/28 12:12:54;;;;;;;11.80;3.55;;;21.90;94.10;;;;;;5052718;28;20036;-80
2022/10/28 12:15:51;;;;;;;13.98;3.10;;;21.90;94.20;;;;;;5052815;28;20048;-80
2022/10/28 12:18:34;;;;;;;12.55;2.75;;;21.90;94.20;;;;;;5052634;28;20426;-80
2022/10/28 12:21:21;;;;;;;14.40;3.40;;;21.90;94.40;;;;;;5052709;28;20025;-81
2022/10/28 12:23:48;;;;;;;13.55;3.47;;;21.90;94.50;;;;;;5055052;28;20029;-80
2022/10/28 12:26:16;;;;;;;11.98;3.13;;;21.90;94.30;;;;;;5056555;28;20099;-79
2022/10/28 12:28:53;;;;;;;13.02;3.13;;;21.90;94.20;;;;;;5056655;28;20025;-81
2022/10/28 12:31:29;;;;;;;16.85;3.90;;;22.00;94.30;;;;;;5056361;28;20154;-79
2022/10/28 12:33:58;;;;;;;19.52;3.97;;;21.90;94.00;;;;;;5056653;28;20021;-78
2022/10/28 12:36:30;;;;;;;10.60;3.10;;;22.00;94.20;;;;;;5056711;28;20025;-79
2022/10/28 12:39:11;;;;;;;10.98;3.03;;;22.00;93.90;;;;;;5056220;28;20485;-79
2022/10/28 12:42:03;;;;;;;14.52;3.55;;;22.00;94.10;;;;;;5056082;28;20362;-79
2022/10/28 12:44:31;;;;;;;12.40;3.38;;;22.00;93.70;;;;;;5053990;28;20033;-80
2022/10/28 12:47:19;;;;;;;12.73;3.28;;;22.00;93.60;;;;;;5056240;28;20047;-80
2022/10/28 12:50:00;;;;;;;16.75;2.90;;;22.10;93.60;;;;;;5056345;28;20033;-80
2022/10/28 12:53:08;;;;;;;21.58;3.30;;;22.00;93.30;;;;;;5057221;28;20021;-77
2022/10/28 12:55:44;;;;;;;16.50;3.65;;;22.00;93.10;;;;;;5019269;28;20018;-77
2022/10/28 12:58:26;;;;;;;12.23;3.10;;;22.00;92.90;;;;;;5050559;28;20555;-79
2022/10/28 13:00:59;;;;;;;11.15;3.20;;;22.00;92.80;;;;;;5055709;28;20037;-80